Time;durP1;ratioP1;P1;durP2;ratioP2;P2;SDS_P1;SDS_P2;PMS_P1;PMS_P2;Temp;Humidity;BMP_temperature;BMP_pressure;BME280_temperature;BME280_humidity;BME280_pressure;Samples;Min_cycle;Max_cycle;Signal;HPM_P1;HPM_P2
2022/06/03 00:03:16;;;;;;;1.53;1.40;;;21.50;99.90;;;;;;5017608;28;20241;-89
2022/06/03 00:06:20;;;;;;;3.27;1.37;;;21.60;99.90;;;;;;5015392;28;20209;-91
2022/06/03 00:09:14;;;;;;;1.50;1.40;;;21.90;99.90;;;;;;5006563;28;20209;-90
2022/06/03 00:12:07;;;;;;;1.83;1.20;;;22.40;99.90;;;;;;5160754;23;20249;-92
2022/06/03 00:15:03;;;;;;;2.33;1.30;;;23.00;99.90;;;;;;4993141;28;20201;-93
2022/06/03 00:17:58;;;;;;;1.20;1.10;;;23.30;99.90;;;;;;5009129;28;20217;-92
2022/06/03 00:20:43;;;;;;;1.83;1.30;;;23.30;99.90;;;;;;5011840;28;20206;-92
2022/06/03 00:23:51;;;;;;;1.53;1.00;;;23.30;99.90;;;;;;5004745;28;20249;-91
2022/06/03 00:26:34;;;;;;;1.20;1.10;;;23.10;99.90;;;;;;4990477;28;20206;-91
2022/06/03 00:32:18;;;;;;;1.10;1.00;;;22.70;99.90;;;;;;4958147;28;20695;-91
2022/06/03 00:35:17;;;;;;;1.33;1.20;;;22.40;99.90;;;;;;4962191;29;20211;-91
2022/06/03 00:37:51;;;;;;;2.63;1.20;;;22.30;99.90;;;;;;4963100;28;20640;-91
2022/06/03 00:40:55;;;;;;;1.97;1.20;;;21.90;99.90;;;;;;4967131;28;20572;-91
2022/06/03 00:43:47;;;;;;;1.80;1.20;;;21.80;99.90;;;;;;4970476;29;20231;-91
2022/06/03 00:46:35;;;;;;;3.50;1.80;;;21.60;99.90;;;;;;4968228;29;20239;-91
2022/06/03 00:49:36;;;;;;;2.67;2.03;;;21.50;99.90;;;;;;4968569;29;20614;-92
2022/06/03 00:52:46;;;;;;;2.50;2.20;;;21.30;99.90;;;;;;4964321;28;20318;-93
2022/06/03 00:55:43;;;;;;;3.53;2.40;;;21.20;99.90;;;;;;4941288;28;20258;-92
2022/06/03 00:58:38;;;;;;;3.87;2.30;;;21.10;99.90;;;;;;4951511;28;20211;-91
2022/06/03 01:01:12;;;;;;;5.77;2.87;;;21.10;99.90;;;;;;4979431;28;20195;-94
2022/06/03 01:04:04;;;;;;;3.20;2.60;;;21.00;99.90;;;;;;4965544;28;20243;-96
2022/06/03 01:06:57;;;;;;;2.90;2.20;;;20.90;99.90;;;;;;5041883;23;20231;-85
2022/06/03 01:09:57;;;;;;;2.30;1.80;;;20.80;99.90;;;;;;4937686;29;20189;-89
2022/06/03 01:12:46;;;;;;;3.13;2.10;;;20.60;99.90;;;;;;4936348;29;20197;-93
2022/06/03 01:15:28;;;;;;;3.67;1.80;;;20.40;99.90;;;;;;4938016;29;20201;-93
2022/06/03 01:18:18;;;;;;;2.90;1.97;;;20.30;99.90;;;;;;4938763;29;20217;-92
2022/06/03 01:21:09;;;;;;;5.13;1.80;;;20.20;99.90;;;;;;4933714;29;20209;-90
2022/06/03 01:24:21;;;;;;;3.10;2.03;;;20.10;99.90;;;;;;4926308;29;20229;-89
2022/06/03 01:27:47;;;;;;;2.17;1.97;;;20.00;99.90;;;;;;4926394;29;20217;-90
2022/06/03 01:30:32;;;;;;;3.07;1.90;;;19.90;99.90;;;;;;4883568;29;20217;-92
2022/06/03 01:33:32;;;;;;;2.83;2.00;;;19.90;99.90;;;;;;4914631;29;20269;-93
2022/06/03 01:36:36;;;;;;;3.70;2.30;;;19.70;99.90;;;;;;4923682;29;20248;-90
2022/06/03 01:39:41;;;;;;;3.20;1.90;;;19.60;99.90;;;;;;4915525;29;20303;-91
2022/06/03 01:42:40;;;;;;;6.80;2.40;;;19.40;99.90;;;;;;4930959;29;20240;-95
2022/06/03 01:45:40;;;;;;;11.70;4.10;;;19.30;99.90;;;;;;4925493;29;20213;-93
2022/06/03 01:48:47;;;;;;;3.10;2.00;;;19.30;99.90;;;;;;4912607;29;20253;-96
2022/06/03 01:51:54;;;;;;;4.17;1.97;;;19.10;99.90;;;;;;4930322;29;20351;-95
2022/06/03 01:57:36;;;;;;;11.43;2.80;;;19.00;99.90;;;;;;5131791;23;20260;-94
2022/06/03 02:00:32;;;;;;;5.83;2.53;;;18.90;99.90;;;;;;5014041;28;20200;-96
2022/06/03 02:03:52;;;;;;;5.90;2.70;;;18.80;99.90;;;;;;5070399;23;20317;-95
2022/06/03 02:07:07;;;;;;;4.17;2.03;;;18.80;99.90;;;;;;5260512;23;20238;-96
2022/06/03 02:10:13;;;;;;;2.80;1.80;;;18.70;99.90;;;;;;5027397;28;20344;-96
2022/06/03 02:13:18;;;;;;;5.37;2.33;;;18.70;99.90;;;;;;5062447;23;20605;-95
2022/06/03 02:16:12;;;;;;;5.20;3.20;;;18.70;99.90;;;;;;5007171;28;20190;-96
2022/06/03 02:19:17;;;;;;;6.40;3.13;;;18.70;99.90;;;;;;5013394;28;20306;-94
2022/06/03 02:22:27;;;;;;;5.87;3.10;;;18.70;99.90;;;;;;5014059;28;20210;-96
2022/06/03 02:25:40;;;;;;;5.87;2.90;;;18.80;99.90;;;;;;5011807;28;20227;-96
2022/06/03 02:31:26;;;;;;;5.20;3.20;;;18.80;99.90;;;;;;5348338;23;20232;-96
2022/06/03 02:34:29;;;;;;;5.17;2.30;;;18.70;99.90;;;;;;5032465;28;20269;-95
2022/06/03 02:37:49;;;;;;;4.13;2.20;;;18.70;99.90;;;;;;5009637;28;20209;-95
2022/06/03 02:40:43;;;;;;;3.90;2.07;;;18.80;99.90;;;;;;5028549;28;20201;-96
2022/06/03 02:43:40;;;;;;;4.50;2.50;;;18.90;99.90;;;;;;5026549;28;20224;-94
2022/06/03 02:46:39;;;;;;;3.27;2.30;;;18.80;99.90;;;;;;5004348;28;20672;-96
2022/06/03 02:49:35;;;;;;;7.10;3.10;;;18.80;99.90;;;;;;5030158;28;20245;-93
2022/06/03 02:52:38;;;;;;;3.90;3.13;;;18.70;99.90;;;;;;5014494;28;20248;-96
2022/06/03 02:55:47;;;;;;;5.33;2.47;;;18.70;99.90;;;;;;5000771;28;20206;-96
2022/06/03 02:58:43;;;;;;;5.47;3.50;;;18.70;99.90;;;;;;5006708;28;20608;-96
2022/06/03 03:01:49;;;;;;;3.03;2.73;;;18.70;99.90;;;;;;5002011;28;20206;-94
2022/06/03 03:04:46;;;;;;;2.73;2.50;;;18.70;99.90;;;;;;4973040;28;20745;-94
2022/06/03 03:07:34;;;;;;;3.77;2.30;;;18.70;99.90;;;;;;5005316;28;20206;-96
2022/06/03 03:10:34;;;;;;;3.33;2.20;;;18.70;99.90;;;;;;5013538;28;20264;-94
2022/06/03 03:13:33;;;;;;;1.83;1.73;;;18.60;99.90;;;;;;4998933;28;20222;-96
2022/06/03 03:16:29;;;;;;;2.20;1.70;;;18.60;99.90;;;;;;4982164;28;20256;-94
2022/06/03 03:19:48;;;;;;;2.90;1.40;;;18.50;99.90;;;;;;4984537;28;20206;-94
2022/06/03 03:33:21;;;;;;;4.43;1.50;;;18.30;99.90;;;;;;5011124;28;20240;-95
2022/06/03 03:36:21;;;;;;;2.60;1.63;;;18.10;99.90;;;;;;4983435;28;20198;-92
2022/06/03 03:39:34;;;;;;;1.33;1.23;;;18.10;99.90;;;;;;4985945;28;20211;-94
2022/06/03 03:42:46;;;;;;;1.60;1.40;;;18.10;99.90;;;;;;5002427;28;20280;-95
2022/06/03 03:45:45;;;;;;;3.40;1.43;;;18.00;99.90;;;;;;5006222;28;20234;-95
2022/06/03 03:48:56;;;;;;;2.20;1.50;;;17.90;99.90;;;;;;4991540;28;20231;-95
2022/06/03 03:51:47;;;;;;;1.50;1.37;;;17.90;99.90;;;;;;5008334;28;20206;-96
2022/06/03 03:54:59;;;;;;;3.00;1.50;;;17.80;99.90;;;;;;5011175;28;20199;-95
2022/06/03 03:58:18;;;;;;;2.70;1.57;;;17.70;99.90;;;;;;5013139;28;20205;-96
2022/06/03 04:09:55;;;;;;;2.20;1.50;;;17.30;99.90;;;;;;5199881;23;20261;-95
2022/06/03 04:13:16;;;;;;;1.77;1.50;;;17.20;99.90;;;;;;4950933;28;20201;-91
2022/06/03 04:16:31;;;;;;;2.30;1.70;;;17.20;99.90;;;;;;4947011;29;20202;-94
2022/06/03 04:19:34;;;;;;;1.40;1.30;;;17.00;99.90;;;;;;4939821;29;20218;-95
2022/06/03 04:22:37;;;;;;;2.07;1.63;;;17.10;99.90;;;;;;4960853;29;20211;-94
2022/06/03 04:25:35;;;;;;;3.13;1.37;;;17.00;99.90;;;;;;4949600;29;20302;-94
2022/06/03 04:28:54;;;;;;;3.07;1.73;;;16.90;99.90;;;;;;4969432;29;20574;-93
2022/06/03 04:32:12;;;;;;;2.70;1.83;;;16.80;99.90;;;;;;4961412;28;20255;-95
2022/06/03 04:35:24;;;;;;;2.93;1.50;;;16.70;99.90;;;;;;4969439;28;20200;-94
2022/06/03 04:38:46;;;;;;;2.40;2.10;;;16.70;99.90;;;;;;4958016;29;20216;-95
2022/06/03 04:42:05;;;;;;;4.73;2.10;;;16.60;99.90;;;;;;4870461;29;20237;-94
2022/06/03 04:45:09;;;;;;;2.00;1.90;;;16.60;99.90;;;;;;4896003;29;20266;-94
2022/06/03 04:48:40;;;;;;;2.40;2.20;;;16.60;99.90;;;;;;4950667;29;20315;-94
2022/06/03 04:52:05;;;;;;;3.57;2.07;;;16.60;99.90;;;;;;4946355;29;20217;-94
2022/06/03 04:55:13;;;;;;;6.73;2.57;;;16.60;99.90;;;;;;4947449;29;20244;-94
2022/06/03 04:58:55;;;;;;;8.17;1.93;;;16.40;99.90;;;;;;4946508;29;20219;-96
2022/06/03 05:02:16;;;;;;;5.20;1.80;;;16.40;99.90;;;;;;4945172;29;20236;-95
2022/06/03 05:05:33;;;;;;;2.77;1.77;;;16.40;99.90;;;;;;4996495;23;20226;-96
2022/06/03 05:08:55;;;;;;;2.57;1.73;;;16.40;99.90;;;;;;4936811;29;20251;-96
2022/06/03 05:12:06;;;;;;;1.67;1.57;;;16.40;99.90;;;;;;4980361;28;20215;-95
2022/06/03 05:15:14;;;;;;;3.10;1.93;;;16.30;99.90;;;;;;4972723;28;20207;-96
2022/06/03 05:18:13;;;;;;;2.57;1.63;;;16.30;99.90;;;;;;4980406;28;20660;-96
2022/06/03 05:21:18;;;;;;;4.37;1.80;;;16.30;99.90;;;;;;4986737;28;20207;-96
2022/06/03 05:24:14;;;;;;;2.03;1.53;;;16.20;99.90;;;;;;4986527;28;20219;-96
2022/06/03 05:27:19;;;;;;;3.17;1.77;;;16.30;99.90;;;;;;4997874;28;20211;-95
2022/06/03 05:30:15;;;;;;;1.63;1.53;;;16.20;99.90;;;;;;4994620;28;20202;-96
2022/06/03 05:33:35;;;;;;;5.20;1.80;;;16.20;99.90;;;;;;5000688;28;20207;-95
2022/06/03 05:36:55;;;;;;;3.13;1.60;;;16.10;99.90;;;;;;4991813;28;20212;-95
2022/06/03 05:40:08;;;;;;;3.73;1.90;;;16.10;99.90;;;;;;4981982;28;20862;-94
2022/06/03 05:43:11;;;;;;;4.03;1.93;;;16.10;99.90;;;;;;4958262;28;20240;-96
2022/06/03 05:46:02;;;;;;;4.67;2.50;;;16.20;99.90;;;;;;4962815;28;20230;-96
2022/06/03 05:48:50;;;;;;;2.40;2.20;;;16.20;99.90;;;;;;4973523;28;20203;-96
2022/06/03 05:51:50;;;;;;;6.00;2.80;;;16.20;99.90;;;;;;4996304;28;20222;-95
2022/06/03 05:54:41;;;;;;;3.00;2.50;;;16.20;99.90;;;;;;4994474;28;20349;-95
2022/06/03 05:57:36;;;;;;;2.90;2.70;;;16.20;99.90;;;;;;4995359;28;20214;-95
2022/06/03 06:00:53;;;;;;;3.70;3.20;;;16.20;99.90;;;;;;4977480;28;20293;-95
2022/06/03 06:03:47;;;;;;;3.97;3.10;;;16.20;99.90;;;;;;4993379;28;20217;-95
2022/06/03 06:08:59;;;;;;;4.27;3.27;;;16.10;99.90;;;;;;4989165;28;20222;-95
2022/06/03 06:11:43;;;;;;;3.30;3.10;;;16.10;99.90;;;;;;4978806;28;20211;-96
2022/06/03 06:14:34;;;;;;;4.37;3.37;;;16.10;99.90;;;;;;4995272;28;20207;-95
2022/06/03 06:17:39;;;;;;;3.77;3.47;;;16.10;99.90;;;;;;4992259;28;20643;-95
2022/06/03 06:20:20;;;;;;;7.37;3.00;;;16.10;99.90;;;;;;4993756;28;20219;-95
2022/06/03 06:22:58;;;;;;;3.53;3.23;;;16.10;99.90;;;;;;4990280;28;20222;-95
2022/06/03 06:25:39;;;;;;;3.90;3.20;;;16.10;99.90;;;;;;4995207;28;20218;-94
2022/06/03 06:28:30;;;;;;;5.27;3.07;;;16.10;99.90;;;;;;4998975;28;20218;-95
2022/06/03 06:31:32;;;;;;;3.27;2.97;;;16.10;99.90;;;;;;4994952;28;20203;-94
2022/06/03 06:34:36;;;;;;;3.10;2.73;;;16.00;99.90;;;;;;4974268;28;20318;-95
2022/06/03 06:37:56;;;;;;;4.10;2.90;;;16.00;99.90;;;;;;4995745;28;20234;-94
2022/06/03 06:40:41;;;;;;;5.50;2.70;;;16.00;99.90;;;;;;4937586;28;20224;-94
2022/06/03 06:43:29;;;;;;;2.77;2.40;;;16.00;99.90;;;;;;4981080;28;20199;-93
2022/06/03 06:46:10;;;;;;;3.40;2.77;;;16.00;99.90;;;;;;4995317;28;20584;-94
2022/06/03 06:48:56;;;;;;;3.67;2.87;;;15.90;99.90;;;;;;4983015;28;20284;-94
2022/06/03 06:51:52;;;;;;;4.73;2.90;;;15.90;99.90;;;;;;4972202;28;20231;-94
2022/06/03 06:54:31;;;;;;;3.07;2.77;;;15.90;99.90;;;;;;4988944;28;20214;-94
2022/06/03 06:57:07;;;;;;;4.73;3.37;;;15.90;99.90;;;;;;4967826;28;20224;-94
2022/06/03 06:59:41;;;;;;;3.33;2.97;;;16.00;99.90;;;;;;4984957;28;20210;-94
2022/06/03 07:02:20;;;;;;;4.20;3.20;;;16.00;99.90;;;;;;4971187;28;20231;-94
2022/06/03 07:04:55;;;;;;;4.30;3.37;;;16.00;99.90;;;;;;4981623;28;20230;-93
2022/06/03 07:07:33;;;;;;;6.33;4.17;;;16.00;99.90;;;;;;4985550;28;20670;-93
2022/06/03 07:10:13;;;;;;;4.40;4.00;;;16.00;99.90;;;;;;4982452;28;20211;-95
2022/06/03 07:12:50;;;;;;;4.47;4.00;;;16.00;99.90;;;;;;4992577;28;20215;-94
2022/06/03 07:15:42;;;;;;;6.40;4.53;;;15.90;99.90;;;;;;4992508;28;20223;-93
2022/06/03 07:21:16;;;;;;;7.07;4.50;;;15.80;99.90;;;;;;4994216;28;20187;-95
2022/06/03 07:23:52;;;;;;;4.73;3.87;;;15.80;99.90;;;;;;4979177;28;20604;-95
2022/06/03 07:26:44;;;;;;;4.83;4.37;;;15.80;99.90;;;;;;4997465;28;20277;-95
2022/06/03 07:29:21;;;;;;;7.57;4.53;;;15.80;99.90;;;;;;4989492;28;20231;-95
2022/06/03 07:32:01;;;;;;;7.83;5.13;;;15.80;99.90;;;;;;4974545;28;20283;-96
2022/06/03 07:42:43;;;;;;;9.23;6.00;;;15.70;99.90;;;;;;4994153;28;20230;-94
2022/06/03 07:45:31;;;;;;;5.37;4.87;;;15.70;99.90;;;;;;4994557;28;20223;-95
2022/06/03 07:48:07;;;;;;;9.37;5.30;;;15.70;99.90;;;;;;4990557;28;20235;-95
2022/06/03 07:50:47;;;;;;;6.10;5.50;;;15.80;99.90;;;;;;4989442;28;20213;-96
2022/06/03 07:53:22;;;;;;;8.33;6.13;;;15.70;99.90;;;;;;4989396;28;20211;-95
2022/06/03 07:55:55;;;;;;;6.63;5.50;;;15.70;99.90;;;;;;4989587;28;20218;-95
2022/06/03 07:58:35;;;;;;;6.97;6.17;;;15.70;99.90;;;;;;4993434;28;20214;-95
2022/06/03 08:01:08;;;;;;;6.07;5.47;;;15.80;99.90;;;;;;4992942;28;20262;-94
2022/06/03 08:03:41;;;;;;;6.63;5.63;;;15.80;99.90;;;;;;4989836;28;20262;-93
2022/06/03 08:06:13;;;;;;;5.63;5.13;;;15.80;99.90;;;;;;4994438;28;20262;-94
2022/06/03 08:11:39;;;;;;;6.00;5.40;;;15.80;99.90;;;;;;4993264;28;20203;-94
2022/06/03 08:14:13;;;;;;;5.53;4.83;;;15.80;99.90;;;;;;4984244;28;20241;-96
2022/06/03 08:16:49;;;;;;;5.20;4.70;;;15.70;99.90;;;;;;4985246;28;20207;-96
2022/06/03 08:19:26;;;;;;;4.60;4.20;;;15.70;99.90;;;;;;4989069;28;20226;-96
2022/06/03 08:22:00;;;;;;;9.60;4.87;;;15.80;99.90;;;;;;4993827;28;20616;-95
2022/06/03 08:24:36;;;;;;;4.93;4.47;;;15.80;99.90;;;;;;4979158;28;20199;-93
2022/06/03 08:27:14;;;;;;;6.13;4.60;;;15.80;99.90;;;;;;4993836;28;20234;-94
2022/06/03 08:29:53;;;;;;;5.10;4.60;;;15.80;99.90;;;;;;4984897;28;20297;-96
2022/06/03 08:32:29;;;;;;;7.93;4.30;;;15.70;99.90;;;;;;4994230;28;20210;-95
2022/06/03 08:35:06;;;;;;;4.37;3.57;;;15.70;99.90;;;;;;4987995;28;20218;-94
2022/06/03 08:37:44;;;;;;;4.37;3.97;;;15.70;99.90;;;;;;4982170;28;20211;-94
2022/06/03 08:40:26;;;;;;;4.10;3.70;;;15.80;99.90;;;;;;4980637;28;20249;-94
2022/06/03 08:43:08;;;;;;;4.40;4.00;;;15.80;99.90;;;;;;4980055;28;20269;-95
2022/06/03 08:45:53;;;;;;;4.63;4.13;;;15.80;99.90;;;;;;4982902;28;20218;-95
2022/06/03 08:48:32;;;;;;;3.93;3.60;;;15.80;99.90;;;;;;4981513;28;20211;-96
2022/06/03 08:51:06;;;;;;;4.90;4.03;;;15.80;99.90;;;;;;4986152;28;20313;-92
2022/06/03 08:53:46;;;;;;;4.47;3.57;;;15.80;99.90;;;;;;4992729;28;20218;-94
2022/06/03 08:56:22;;;;;;;4.40;4.00;;;15.80;99.90;;;;;;4996095;28;20218;-93
2022/06/03 08:59:01;;;;;;;5.87;3.97;;;15.80;99.90;;;;;;5000136;28;20198;-94
2022/06/03 09:01:42;;;;;;;4.10;3.57;;;15.80;99.90;;;;;;4998524;28;20230;-95
2022/06/03 09:04:27;;;;;;;5.33;3.70;;;15.80;99.90;;;;;;4987647;28;20293;-95
2022/06/03 09:07:07;;;;;;;7.07;3.90;;;15.80;99.90;;;;;;4989694;28;20243;-94
2022/06/03 09:09:45;;;;;;;3.70;3.40;;;15.80;99.90;;;;;;4990010;28;20692;-96
2022/06/03 09:12:25;;;;;;;4.30;3.30;;;15.80;99.90;;;;;;4974625;28;20203;-96
2022/06/03 09:14:59;;;;;;;5.93;3.60;;;15.80;99.90;;;;;;4984263;28;20266;-94
2022/06/03 09:17:50;;;;;;;4.10;3.20;;;15.80;99.90;;;;;;4997766;28;20191;-95
2022/06/03 09:20:26;;;;;;;4.83;3.60;;;15.80;99.90;;;;;;4994457;28;20588;-95
2022/06/03 09:23:01;;;;;;;3.73;3.43;;;15.80;99.90;;;;;;4978491;28;20211;-94
2022/06/03 09:25:36;;;;;;;3.73;3.43;;;15.80;99.90;;;;;;4999627;28;20199;-95
2022/06/03 09:28:11;;;;;;;4.40;3.87;;;15.80;99.90;;;;;;4999242;28;20222;-96
2022/06/03 09:30:44;;;;;;;4.90;3.83;;;15.80;99.90;;;;;;4999263;28;20198;-96
2022/06/03 09:33:21;;;;;;;5.97;3.73;;;15.80;99.90;;;;;;4999341;28;20199;-93
2022/06/03 09:35:56;;;;;;;4.33;4.00;;;15.80;99.90;;;;;;4960644;29;20231;-95
2022/06/03 09:38:32;;;;;;;3.97;3.57;;;15.80;99.90;;;;;;4994622;28;20206;-95
2022/06/03 09:41:05;;;;;;;3.77;3.00;;;15.80;99.90;;;;;;4998873;28;20238;-95
2022/06/03 09:43:40;;;;;;;3.83;2.93;;;15.80;99.90;;;;;;4995041;28;20258;-95
2022/06/03 09:46:14;;;;;;;4.23;2.60;;;15.80;99.90;;;;;;4990302;28;20250;-95
2022/06/03 09:48:49;;;;;;;4.23;2.30;;;15.70;99.90;;;;;;4989479;28;20287;-95
2022/06/03 09:51:55;;;;;;;3.40;2.40;;;15.70;99.90;;;;;;4983946;28;20238;-94
2022/06/03 09:54:24;;;;;;;2.83;2.00;;;15.60;99.90;;;;;;4956953;28;20203;-95
2022/06/03 09:57:00;;;;;;;2.90;1.73;;;15.60;99.90;;;;;;4984013;28;20226;-95
2022/06/03 09:59:35;;;;;;;4.40;1.90;;;15.60;99.90;;;;;;4982999;28;20206;-94
2022/06/03 10:02:10;;;;;;;5.23;1.87;;;15.60;99.90;;;;;;4986683;28;20293;-95
2022/06/03 10:04:45;;;;;;;4.17;1.90;;;15.60;99.90;;;;;;4988113;28;20219;-95
2022/06/03 10:07:17;;;;;;;4.80;1.90;;;15.60;99.90;;;;;;4985613;28;20313;-95
2022/06/03 10:12:50;;;;;;;5.43;2.00;;;15.60;99.90;;;;;;4978386;28;20277;-94
2022/06/03 10:15:41;;;;;;;2.97;2.17;;;15.50;99.90;;;;;;4988187;28;20226;-95
2022/06/03 10:18:30;;;;;;;3.00;1.90;;;15.50;99.90;;;;;;4989043;28;20211;-93
2022/06/03 10:21:35;;;;;;;5.20;2.27;;;15.50;99.90;;;;;;4994384;28;20207;-94
2022/06/03 10:24:08;;;;;;;4.47;2.20;;;15.40;99.90;;;;;;4990697;28;20262;-94
2022/06/03 10:26:48;;;;;;;3.50;2.27;;;15.40;99.90;;;;;;4992080;28;20262;-93
2022/06/03 10:29:22;;;;;;;3.30;2.20;;;15.40;99.90;;;;;;4984341;28;20211;-95
2022/06/03 10:31:57;;;;;;;1.90;1.70;;;15.40;99.90;;;;;;4985533;28;20207;-96
2022/06/03 10:34:37;;;;;;;4.40;2.40;;;15.30;99.90;;;;;;4982279;28;20305;-95
2022/06/03 10:37:14;;;;;;;2.77;2.50;;;15.20;99.90;;;;;;4964614;28;20234;-95
2022/06/03 10:39:46;;;;;;;3.20;2.20;;;15.20;99.90;;;;;;4964333;28;20241;-95
2022/06/03 10:42:20;;;;;;;3.37;2.30;;;15.10;99.90;;;;;;4982622;28;20261;-96
2022/06/03 10:44:56;;;;;;;4.60;2.27;;;15.10;99.90;;;;;;4945607;29;20254;-95
2022/06/03 10:47:37;;;;;;;3.40;2.20;;;15.10;99.90;;;;;;4980837;28;20563;-95
2022/06/03 10:50:13;;;;;;;4.23;2.10;;;15.10;99.90;;;;;;4985784;28;20206;-94
2022/06/03 11:01:34;;;;;;;3.20;2.10;;;15.00;99.90;;;;;;4995515;28;20221;-94
2022/06/03 11:04:06;;;;;;;3.40;2.70;;;15.00;99.90;;;;;;4993379;28;20214;-96
2022/06/03 11:06:40;;;;;;;3.80;2.23;;;15.00;99.90;;;;;;4994838;28;20215;-94
2022/06/03 11:09:19;;;;;;;2.90;2.60;;;15.00;99.90;;;;;;4995415;28;20242;-93
2022/06/03 11:11:54;;;;;;;4.50;2.60;;;15.00;99.90;;;;;;4997594;28;20199;-95
2022/06/03 11:14:37;;;;;;;7.17;3.03;;;15.00;99.90;;;;;;4996099;28;20195;-95
2022/06/03 11:17:14;;;;;;;2.93;2.60;;;14.90;99.90;;;;;;4983777;28;20207;-95
2022/06/03 11:19:47;;;;;;;3.27;2.50;;;14.90;99.90;;;;;;4976845;28;20239;-95
2022/06/03 11:22:32;;;;;;;2.67;2.30;;;14.90;99.90;;;;;;4985624;28;20239;-93
2022/06/03 11:25:14;;;;;;;3.00;2.80;;;14.90;99.90;;;;;;4970266;29;20204;-94
2022/06/03 11:27:52;;;;;;;3.30;2.60;;;14.90;99.90;;;;;;4967106;29;20239;-95
2022/06/03 11:30:34;;;;;;;3.67;2.50;;;14.80;99.90;;;;;;4974342;28;20214;-95
2022/06/03 11:33:10;;;;;;;3.13;2.77;;;14.70;99.90;;;;;;4989378;28;20266;-94
2022/06/03 11:35:46;;;;;;;3.10;2.80;;;14.70;99.90;;;;;;4981601;28;20247;-95
2022/06/03 11:38:28;;;;;;;4.97;3.23;;;14.60;99.90;;;;;;4980791;28;20207;-94
2022/06/03 11:41:20;;;;;;;5.23;3.13;;;14.60;99.90;;;;;;4979269;28;20734;-95
2022/06/03 11:43:56;;;;;;;4.17;3.03;;;14.60;99.90;;;;;;4981055;28;20218;-96
2022/06/03 11:46:34;;;;;;;4.77;3.20;;;14.60;99.90;;;;;;4981141;28;20242;-95
2022/06/03 11:49:07;;;;;;;3.63;3.13;;;14.50;99.90;;;;;;4983328;28;20262;-94
2022/06/03 11:51:38;;;;;;;4.33;2.93;;;14.50;99.90;;;;;;4990683;28;20214;-95
2022/06/03 11:54:15;;;;;;;3.93;3.20;;;14.50;99.90;;;;;;4993278;28;20218;-93
2022/06/03 11:56:50;;;;;;;5.47;3.30;;;14.50;99.90;;;;;;4991599;28;20283;-93
2022/06/03 11:59:31;;;;;;;3.73;3.03;;;14.40;99.90;;;;;;4989136;28;20671;-95
2022/06/03 12:02:11;;;;;;;3.40;3.10;;;14.40;99.90;;;;;;4981257;28;20640;-95
2022/06/03 12:04:50;;;;;;;3.43;3.13;;;14.30;99.90;;;;;;4978258;28;20210;-95
2022/06/03 12:07:37;;;;;;;3.97;2.83;;;14.30;99.90;;;;;;4978523;28;20269;-95
2022/06/03 12:10:16;;;;;;;4.37;2.83;;;14.30;99.90;;;;;;4976986;28;20265;-95
2022/06/03 12:13:15;;;;;;;4.67;3.13;;;14.30;99.90;;;;;;5005520;23;20199;-93
2022/06/03 12:16:09;;;;;;;3.17;2.73;;;14.20;99.90;;;;;;4938585;29;20248;-94
2022/06/03 12:19:03;;;;;;;3.60;2.70;;;14.30;99.90;;;;;;4939443;29;20204;-94
2022/06/03 12:22:16;;;;;;;4.00;2.83;;;14.20;99.90;;;;;;4939152;29;20602;-94
2022/06/03 12:25:36;;;;;;;2.60;2.40;;;14.20;99.90;;;;;;4939617;29;20291;-94
2022/06/03 12:28:17;;;;;;;3.83;2.43;;;14.20;99.90;;;;;;4939656;29;20287;-94
2022/06/03 12:30:52;;;;;;;5.50;2.50;;;14.10;99.90;;;;;;4938351;29;20599;-94
2022/06/03 12:33:31;;;;;;;3.37;2.60;;;14.10;99.90;;;;;;4938944;29;20208;-95
2022/06/03 12:36:07;;;;;;;3.30;2.00;;;14.10;99.90;;;;;;4937368;29;20212;-95
2022/06/03 12:38:54;;;;;;;4.33;2.50;;;14.10;99.90;;;;;;4919941;29;20244;-95
2022/06/03 12:42:02;;;;;;;3.30;2.20;;;14.10;99.90;;;;;;4932088;29;20212;-95
2022/06/03 12:45:13;;;;;;;2.20;2.00;;;14.00;99.90;;;;;;4941497;29;20259;-95
2022/06/03 12:47:49;;;;;;;1.87;1.77;;;14.00;99.90;;;;;;4913271;29;20217;-95
2022/06/03 12:50:35;;;;;;;2.00;1.80;;;14.00;99.90;;;;;;4924095;29;20272;-93
2022/06/03 12:53:36;;;;;;;2.13;1.70;;;14.00;99.90;;;;;;4962901;28;20286;-95
2022/06/03 12:56:41;;;;;;;2.87;1.93;;;13.90;99.90;;;;;;4925726;29;20339;-94
2022/06/03 12:59:27;;;;;;;2.27;1.70;;;13.90;99.90;;;;;;4945246;29;20239;-94
2022/06/03 13:02:10;;;;;;;1.87;1.73;;;14.00;99.90;;;;;;4947314;29;20235;-94
2022/06/03 13:05:16;;;;;;;3.70;1.90;;;14.00;99.90;;;;;;4961940;29;20267;-94
2022/06/03 13:08:07;;;;;;;1.70;1.60;;;14.00;99.90;;;;;;4949921;28;20260;-95
2022/06/03 13:10:57;;;;;;;1.67;1.57;;;13.90;99.90;;;;;;4946102;29;20216;-93
2022/06/03 13:13:49;;;;;;;2.07;1.77;;;13.90;99.90;;;;;;4943385;28;20236;-94
2022/06/03 13:16:43;;;;;;;4.43;1.97;;;13.90;99.90;;;;;;4940000;29;20250;-94
2022/06/03 13:19:59;;;;;;;5.10;2.47;;;13.90;99.90;;;;;;4941288;28;20240;-95
2022/06/03 13:22:57;;;;;;;4.00;2.37;;;13.80;99.90;;;;;;4956435;29;20252;-96
2022/06/03 13:25:33;;;;;;;2.43;1.93;;;13.50;99.90;;;;;;4956536;29;20231;-95
2022/06/03 13:28:38;;;;;;;2.87;1.90;;;13.50;99.90;;;;;;4926741;29;20192;-96
2022/06/03 13:31:14;;;;;;;3.90;2.00;;;13.30;99.90;;;;;;4919074;29;20201;-95
2022/06/03 13:34:19;;;;;;;3.67;2.07;;;13.20;99.90;;;;;;4922973;29;20300;-95
2022/06/03 13:37:24;;;;;;;2.20;1.63;;;13.20;99.90;;;;;;4959511;29;20575;-96
2022/06/03 13:40:19;;;;;;;2.73;1.33;;;13.20;99.90;;;;;;4959290;28;20715;-96
2022/06/03 13:43:16;;;;;;;2.37;1.40;;;13.10;99.90;;;;;;4960054;28;20664;-95
2022/06/03 13:46:09;;;;;;;1.47;1.27;;;13.00;99.90;;;;;;4908873;29;20213;-96
2022/06/03 13:48:53;;;;;;;3.63;2.10;;;13.00;99.90;;;;;;4927092;29;20252;-96
2022/06/03 13:51:50;;;;;;;2.37;1.67;;;12.90;99.90;;;;;;4941610;29;20681;-96
2022/06/03 13:54:27;;;;;;;2.10;1.90;;;12.90;99.90;;;;;;4913607;29;20220;-96
2022/06/03 13:57:05;;;;;;;2.97;2.00;;;13.00;99.90;;;;;;4953227;29;20204;-96
2022/06/03 13:59:41;;;;;;;2.23;1.60;;;13.00;99.90;;;;;;4958632;28;20235;-96
2022/06/03 14:02:19;;;;;;;2.43;1.43;;;13.00;99.90;;;;;;4959501;29;20204;-96
2022/06/03 14:05:01;;;;;;;2.43;1.60;;;13.00;99.90;;;;;;4952340;29;20216;-95
2022/06/03 14:07:39;;;;;;;2.33;1.27;;;13.00;99.90;;;;;;4947905;29;20204;-96
2022/06/03 14:10:24;;;;;;;2.70;1.70;;;13.10;99.90;;;;;;4940107;29;20422;-96
2022/06/03 14:13:01;;;;;;;10.03;1.80;;;13.10;99.90;;;;;;4950533;29;20223;-96
2022/06/03 14:15:41;;;;;;;1.77;1.20;;;13.10;99.90;;;;;;4952682;29;20215;-96
2022/06/03 14:18:13;;;;;;;2.03;1.30;;;13.10;99.90;;;;;;4964082;29;20199;-96
2022/06/03 14:20:50;;;;;;;2.23;1.30;;;13.10;99.90;;;;;;4964379;29;20235;-95
2022/06/03 14:23:29;;;;;;;2.50;1.40;;;13.00;99.90;;;;;;4959232;29;20297;-95
2022/06/03 14:26:07;;;;;;;2.37;1.40;;;13.00;99.90;;;;;;4940333;29;20264;-96
2022/06/03 14:28:49;;;;;;;2.70;1.20;;;13.00;99.90;;;;;;4940196;29;20515;-96
2022/06/03 14:31:29;;;;;;;1.97;1.40;;;13.10;99.90;;;;;;4944103;29;20239;-95
2022/06/03 14:34:15;;;;;;;4.77;1.20;;;13.10;99.90;;;;;;4949574;29;20240;-96
2022/06/03 14:36:48;;;;;;;2.43;1.60;;;13.10;99.90;;;;;;4940463;29;20260;-95
2022/06/03 14:39:24;;;;;;;2.47;1.70;;;13.10;99.90;;;;;;4940073;29;20291;-94
2022/06/03 14:42:02;;;;;;;1.80;1.50;;;13.10;99.90;;;;;;4939920;29;20216;-95
2022/06/03 14:44:33;;;;;;;5.30;1.60;;;13.10;99.90;;;;;;4940316;29;20240;-94
2022/06/03 14:47:09;;;;;;;1.50;1.10;;;13.00;99.90;;;;;;4921383;29;20311;-94
2022/06/03 14:49:47;;;;;;;1.43;1.30;;;13.00;99.90;;;;;;4930261;29;20239;-95
2022/06/03 14:52:24;;;;;;;3.47;1.23;;;13.00;99.90;;;;;;4939514;29;20217;-96
2022/06/03 14:54:59;;;;;;;1.63;1.30;;;13.10;99.90;;;;;;4943263;29;20232;-96
2022/06/03 14:57:38;;;;;;;1.30;1.20;;;13.10;99.90;;;;;;4954760;29;20222;-96
2022/06/03 15:00:39;;;;;;;1.90;1.23;;;13.10;99.90;;;;;;4940503;29;20229;-96
2022/06/03 15:03:21;;;;;;;1.33;1.23;;;13.20;99.90;;;;;;4943578;29;20220;-95
2022/06/03 15:05:56;;;;;;;2.00;1.20;;;13.30;99.90;;;;;;4938940;29;20275;-95
2022/06/03 15:08:35;;;;;;;1.27;1.10;;;13.40;99.90;;;;;;4957479;29;20207;-96
2022/06/03 15:11:13;;;;;;;1.87;1.23;;;13.50;99.90;;;;;;4957668;29;20212;-96
2022/06/03 15:13:55;;;;;;;2.50;1.40;;;13.60;99.90;;;;;;4955961;29;20244;-95
2022/06/03 15:16:26;;;;;;;2.00;1.40;;;13.50;99.90;;;;;;4965270;29;20211;-95
2022/06/03 15:18:59;;;;;;;2.13;1.40;;;13.50;99.90;;;;;;4942521;29;20214;-96
2022/06/03 15:26:48;;;;;;;2.00;1.60;;;13.60;99.90;;;;;;4991242;28;20265;-95
2022/06/03 15:29:32;;;;;;;2.57;1.63;;;13.70;99.90;;;;;;4990718;28;20210;-96
2022/06/03 15:32:06;;;;;;;1.93;1.80;;;13.90;99.90;;;;;;4994396;28;20285;-96
2022/06/03 15:34:39;;;;;;;2.00;1.70;;;14.00;99.90;;;;;;4992131;28;20203;-95
2022/06/03 15:37:10;;;;;;;3.13;1.70;;;14.10;99.90;;;;;;4978538;28;20223;-96
2022/06/03 15:39:44;;;;;;;1.70;1.60;;;14.10;99.90;;;;;;4986357;28;20262;-96
2022/06/03 15:42:24;;;;;;;1.50;1.40;;;14.20;99.90;;;;;;4990360;28;20218;-95